Time;durP1;ratioP1;P1;durP2;ratioP2;P2;SDS_P1;SDS_P2;PMS_P1;PMS_P2;Temp;Humidity;BMP_temperature;BMP_pressure;BME280_temperature;BME280_humidity;BME280_pressure;Samples;Min_cycle;Max_cycle;Signal;HPM_P1;HPM_P2
2024/03/09 00:01:44;;;;;;;29.63;19.92;;;3.40;99.90;;;;;;5114077;28;20227;-63
2024/03/09 00:04:12;;;;;;;31.90;21.95;;;3.40;99.90;;;;;;5114186;28;20226;-62
2024/03/09 00:06:40;;;;;;;34.20;23.27;;;3.40;99.90;;;;;;5113666;28;20665;-63
2024/03/09 00:09:07;;;;;;;36.20;21.90;;;3.30;99.90;;;;;;5114127;28;20200;-63
2024/03/09 00:11:35;;;;;;;35.97;23.85;;;3.30;99.90;;;;;;5114053;28;20305;-64
2024/03/09 00:14:02;;;;;;;37.88;22.30;;;3.30;99.90;;;;;;5114866;28;20203;-63
2024/03/09 00:16:28;;;;;;;35.25;22.95;;;3.20;99.90;;;;;;5114132;28;20286;-61
2024/03/09 00:18:57;;;;;;;33.30;22.00;;;3.20;99.90;;;;;;5113811;28;20222;-64
2024/03/09 00:21:25;;;;;;;34.88;23.98;;;3.20;99.90;;;;;;5114071;28;20215;-63
2024/03/09 00:23:52;;;;;;;38.00;24.13;;;3.10;99.90;;;;;;5114275;28;20199;-64
2024/03/09 00:26:19;;;;;;;35.28;23.13;;;3.10;99.90;;;;;;5114383;28;20200;-64
2024/03/09 00:28:45;;;;;;;39.58;22.85;;;3.10;99.90;;;;;;5115538;28;20195;-63
2024/03/09 00:31:12;;;;;;;37.53;23.83;;;3.10;99.90;;;;;;5117805;28;20234;-63
2024/03/09 00:33:41;;;;;;;38.17;24.67;;;3.10;99.90;;;;;;5118100;28;20184;-64
2024/03/09 00:36:09;;;;;;;37.28;23.08;;;3.10;99.90;;;;;;5118057;28;20198;-64
2024/03/09 00:38:39;;;;;;;38.50;23.65;;;3.10;99.90;;;;;;5118163;28;20220;-63
2024/03/09 00:41:05;;;;;;;37.03;24.75;;;3.10;99.90;;;;;;5118136;28;20219;-62
2024/03/09 00:43:36;;;;;;;37.58;22.67;;;3.00;99.90;;;;;;5118059;28;20732;-63
2024/03/09 00:46:02;;;;;;;37.70;24.15;;;3.00;99.90;;;;;;5118424;28;20191;-62
2024/03/09 00:48:29;;;;;;;35.03;23.60;;;2.90;99.90;;;;;;5118129;28;20199;-63
2024/03/09 00:50:56;;;;;;;38.78;24.60;;;2.90;99.90;;;;;;5118831;28;20231;-64
2024/03/09 00:53:22;;;;;;;36.17;24.55;;;2.90;99.90;;;;;;5118172;28;20200;-63
2024/03/09 00:55:51;;;;;;;39.28;25.60;;;2.80;99.90;;;;;;5117778;28;20196;-64
2024/03/09 00:58:21;;;;;;;42.30;25.40;;;2.80;99.90;;;;;;5117579;28;20227;-62
2024/03/09 01:00:48;;;;;;;38.50;24.38;;;2.80;99.90;;;;;;5117408;28;20215;-63
2024/03/09 01:03:15;;;;;;;38.10;24.77;;;2.80;99.90;;;;;;5117710;28;20199;-62
2024/03/09 01:05:44;;;;;;;39.40;25.45;;;2.80;99.90;;;;;;5117682;28;20256;-62
2024/03/09 01:08:13;;;;;;;43.30;26.55;;;2.80;99.90;;;;;;5117891;28;20222;-63
2024/03/09 01:10:40;;;;;;;33.90;25.42;;;2.80;99.90;;;;;;5117396;28;20224;-63
2024/03/09 01:13:09;;;;;;;42.78;27.25;;;2.80;99.90;;;;;;5117524;28;20252;-63
2024/03/09 01:15:36;;;;;;;40.85;26.20;;;2.80;99.90;;;;;;5116994;28;20200;-62
2024/03/09 01:18:03;;;;;;;46.03;27.75;;;2.70;99.90;;;;;;5116965;28;20584;-63
2024/03/09 01:20:29;;;;;;;37.60;24.85;;;2.70;99.90;;;;;;5117073;28;20211;-62
2024/03/09 01:22:56;;;;;;;46.15;26.95;;;2.70;99.90;;;;;;5116921;28;20195;-63
2024/03/09 01:25:24;;;;;;;39.63;26.05;;;2.70;99.90;;;;;;5117169;28;20569;-62
2024/03/09 01:27:51;;;;;;;42.05;26.67;;;2.70;99.90;;;;;;5116958;28;20753;-63
2024/03/09 01:30:19;;;;;;;43.97;27.83;;;2.70;99.90;;;;;;5116667;28;20195;-62
2024/03/09 01:32:46;;;;;;;41.00;26.10;;;2.70;99.90;;;;;;5116678;28;20223;-61
2024/03/09 01:35:13;;;;;;;41.92;28.08;;;2.70;99.90;;;;;;5117313;28;20199;-62
2024/03/09 01:37:40;;;;;;;40.15;25.60;;;2.70;99.90;;;;;;5117585;28;20199;-62
2024/03/09 01:40:10;;;;;;;42.85;27.75;;;2.60;99.90;;;;;;5118102;28;20716;-63
2024/03/09 01:42:36;;;;;;;39.20;25.13;;;2.60;99.90;;;;;;5120940;28;20255;-62
2024/03/09 01:45:05;;;;;;;42.67;27.85;;;2.60;99.90;;;;;;5119815;28;20298;-63
2024/03/09 01:47:35;;;;;;;46.38;28.95;;;2.60;99.90;;;;;;5118116;28;20672;-64
2024/03/09 01:50:02;;;;;;;41.03;27.92;;;2.50;99.90;;;;;;5117961;28;20204;-64
2024/03/09 01:52:31;;;;;;;45.60;28.50;;;2.60;99.90;;;;;;5117608;28;20226;-61
2024/03/09 01:55:00;;;;;;;44.95;27.55;;;2.50;99.90;;;;;;5116838;28;20200;-62
2024/03/09 01:57:27;;;;;;;38.92;26.75;;;2.50;99.90;;;;;;5116532;28;20248;-64
2024/03/09 01:59:54;;;;;;;43.90;27.67;;;2.50;99.90;;;;;;5116736;28;20219;-62
2024/03/09 02:02:22;;;;;;;44.00;27.65;;;2.40;99.90;;;;;;5117928;28;20228;-63
2024/03/09 02:04:51;;;;;;;44.08;27.02;;;2.40;99.90;;;;;;5117241;28;20196;-64
2024/03/09 02:07:17;;;;;;;48.75;29.42;;;2.40;99.90;;;;;;5116470;28;20290;-63
2024/03/09 02:09:46;;;;;;;48.08;27.63;;;2.40;99.90;;;;;;5116168;28;20203;-61
2024/03/09 02:12:16;;;;;;;45.38;27.73;;;2.30;99.90;;;;;;5115576;28;20782;-62
2024/03/09 02:14:44;;;;;;;46.45;28.95;;;2.30;99.90;;;;;;5116349;28;20204;-63
2024/03/09 02:17:12;;;;;;;47.60;29.00;;;2.20;99.90;;;;;;5115848;28;20302;-62
2024/03/09 02:19:39;;;;;;;48.05;29.85;;;2.20;99.90;;;;;;5115472;28;20215;-62
2024/03/09 02:22:10;;;;;;;45.85;27.80;;;2.20;99.90;;;;;;5115819;28;20220;-62
2024/03/09 02:24:40;;;;;;;51.60;29.63;;;2.20;99.90;;;;;;5116162;28;20188;-62
2024/03/09 02:27:08;;;;;;;47.25;28.08;;;2.20;99.90;;;;;;5116206;28;20188;-62
2024/03/09 02:29:35;;;;;;;44.88;26.35;;;2.20;99.90;;;;;;5115108;28;20665;-62
2024/03/09 02:32:03;;;;;;;46.28;27.83;;;2.10;99.90;;;;;;5115151;27;20227;-63
2024/03/09 02:34:30;;;;;;;47.72;28.52;;;2.10;99.90;;;;;;5115594;28;20200;-62
2024/03/09 02:36:57;;;;;;;49.30;28.38;;;2.10;99.90;;;;;;5115427;28;20691;-62
2024/03/09 02:39:27;;;;;;;45.75;27.48;;;2.10;99.90;;;;;;5115502;28;20226;-62
2024/03/09 02:41:56;;;;;;;46.25;28.08;;;2.10;99.90;;;;;;5116470;28;20247;-62
2024/03/09 02:44:24;;;;;;;48.10;30.23;;;2.00;99.90;;;;;;5115862;28;20206;-62
2024/03/09 02:46:51;;;;;;;47.33;29.55;;;2.00;99.90;;;;;;5116007;28;20299;-62
2024/03/09 02:49:19;;;;;;;47.05;28.58;;;2.00;99.90;;;;;;5115451;28;20196;-63
2024/03/09 02:51:46;;;;;;;42.08;27.40;;;2.00;99.90;;;;;;5113791;28;20265;-63
2024/03/09 02:54:14;;;;;;;46.38;28.42;;;2.00;99.90;;;;;;5116262;28;20234;-62
2024/03/09 02:56:41;;;;;;;46.03;28.33;;;2.00;99.90;;;;;;5116034;28;20243;-62
2024/03/09 02:59:07;;;;;;;45.92;28.90;;;2.00;99.90;;;;;;5115648;28;20604;-62
2024/03/09 03:01:36;;;;;;;46.13;28.85;;;2.00;99.90;;;;;;5115473;28;20220;-62
2024/03/09 03:04:02;;;;;;;51.72;29.20;;;2.00;99.90;;;;;;5115946;28;20199;-63
2024/03/09 03:06:32;;;;;;;46.20;28.48;;;2.00;99.90;;;;;;5116155;28;20195;-63
2024/03/09 03:09:11;;;;;;;47.35;28.42;;;2.00;99.90;;;;;;5115687;28;20282;-63
2024/03/09 03:11:40;;;;;;;46.50;29.27;;;2.00;99.90;;;;;;5115911;28;20223;-61
2024/03/09 03:14:07;;;;;;;47.72;30.52;;;2.00;99.90;;;;;;5115364;28;20199;-63
2024/03/09 03:16:35;;;;;;;47.88;27.38;;;1.90;99.90;;;;;;5115563;28;20196;-63
2024/03/09 03:19:06;;;;;;;49.17;28.42;;;1.90;99.90;;;;;;5115215;28;20718;-62
2024/03/09 03:21:34;;;;;;;44.90;29.00;;;1.90;99.90;;;;;;5114855;28;20219;-62
2024/03/09 03:24:02;;;;;;;47.50;28.17;;;1.90;99.90;;;;;;5115151;28;20196;-62
2024/03/09 03:26:30;;;;;;;60.95;28.80;;;1.80;99.90;;;;;;5115005;28;20199;-63
2024/03/09 03:28:57;;;;;;;42.25;27.33;;;1.80;99.90;;;;;;5114837;28;20680;-63
2024/03/09 03:31:24;;;;;;;45.33;28.65;;;1.80;99.90;;;;;;5127872;22;20234;-62
2024/03/09 03:33:51;;;;;;;49.25;29.70;;;1.80;99.90;;;;;;5116920;28;20180;-60
2024/03/09 03:36:20;;;;;;;48.25;27.85;;;1.80;99.90;;;;;;5117140;28;20207;-60
2024/03/09 03:38:48;;;;;;;47.50;29.95;;;1.80;99.90;;;;;;5116187;28;20716;-61
2024/03/09 03:41:16;;;;;;;45.30;27.55;;;1.80;99.90;;;;;;5116395;28;20219;-61
2024/03/09 03:43:44;;;;;;;48.08;27.67;;;1.80;99.90;;;;;;5115080;28;20633;-63
2024/03/09 03:46:12;;;;;;;53.65;28.98;;;1.70;99.90;;;;;;5114508;28;20286;-61
2024/03/09 03:48:40;;;;;;;47.15;28.55;;;1.70;99.90;;;;;;5114667;28;20209;-61
2024/03/09 03:51:08;;;;;;;50.38;30.08;;;1.70;99.90;;;;;;5114239;28;20218;-62
2024/03/09 03:53:37;;;;;;;47.50;28.95;;;1.70;99.90;;;;;;5113949;28;20208;-61
2024/03/09 03:56:04;;;;;;;50.00;28.60;;;1.70;99.90;;;;;;5114932;28;20242;-62
2024/03/09 03:58:31;;;;;;;47.58;30.33;;;1.60;99.90;;;;;;5114784;28;20206;-61
2024/03/09 04:00:57;;;;;;;52.45;30.17;;;1.60;99.90;;;;;;5128306;28;20200;-60
2024/03/09 04:03:29;;;;;;;45.60;27.85;;;1.60;99.90;;;;;;5129963;28;20206;-61
2024/03/09 04:05:55;;;;;;;48.50;29.95;;;1.60;99.90;;;;;;5115387;28;20187;-61
2024/03/09 04:08:22;;;;;;;48.83;28.73;;;1.60;99.90;;;;;;5114029;28;20214;-61
2024/03/09 04:13:23;;;;;;;46.70;30.45;;;1.50;99.90;;;;;;5112164;27;20613;-62
2024/03/09 04:15:51;;;;;;;46.78;29.08;;;1.50;99.90;;;;;;5111544;28;20195;-62
2024/03/09 04:18:18;;;;;;;49.78;30.00;;;1.50;99.90;;;;;;5112338;28;20299;-62
2024/03/09 04:20:45;;;;;;;63.67;31.90;;;1.50;99.90;;;;;;5112057;28;20195;-62
2024/03/09 04:23:15;;;;;;;47.63;30.13;;;1.50;99.90;;;;;;5111518;28;20219;-62
2024/03/09 04:25:43;;;;;;;48.63;30.40;;;1.50;99.90;;;;;;5111820;28;20229;-63
2024/03/09 04:28:12;;;;;;;51.88;30.67;;;1.50;99.90;;;;;;5112007;28;20705;-61
2024/03/09 04:30:42;;;;;;;45.35;29.50;;;1.40;99.90;;;;;;5112086;28;20208;-63
2024/03/09 04:33:11;;;;;;;53.63;31.67;;;1.40;99.90;;;;;;5111575;28;20228;-61
2024/03/09 04:35:38;;;;;;;46.67;30.98;;;1.40;99.90;;;;;;5111598;28;20666;-62
2024/03/09 04:38:05;;;;;;;47.72;29.73;;;1.40;99.90;;;;;;5111247;28;20195;-62
2024/03/09 04:40:33;;;;;;;51.22;31.17;;;1.40;99.90;;;;;;5111434;28;20204;-63
2024/03/09 04:43:01;;;;;;;46.53;30.33;;;1.40;99.90;;;;;;5111722;28;20219;-62
2024/03/09 04:45:30;;;;;;;53.65;29.75;;;1.40;99.90;;;;;;5111063;28;20204;-63
2024/03/09 04:47:59;;;;;;;45.90;30.80;;;1.30;99.90;;;;;;5111195;28;20204;-61
2024/03/09 04:50:26;;;;;;;46.20;31.50;;;1.30;99.90;;;;;;5111453;28;20245;-62
2024/03/09 04:52:53;;;;;;;48.72;28.33;;;1.30;99.90;;;;;;5111011;28;20689;-61
2024/03/09 04:55:25;;;;;;;53.03;31.38;;;1.30;99.90;;;;;;5111323;28;20227;-62
2024/03/09 04:57:53;;;;;;;52.42;28.75;;;1.30;99.90;;;;;;5111958;28;20565;-61
2024/03/09 05:00:19;;;;;;;45.58;29.30;;;1.30;99.90;;;;;;5111109;28;20196;-61
2024/03/09 05:02:48;;;;;;;55.03;30.15;;;1.20;99.90;;;;;;5076867;22;20233;-60
2024/03/09 05:05:18;;;;;;;48.38;29.27;;;1.20;99.90;;;;;;5050031;28;20672;-61
2024/03/09 05:07:46;;;;;;;53.17;29.85;;;1.20;99.90;;;;;;5051468;28;20202;-60
2024/03/09 05:10:17;;;;;;;50.22;30.80;;;1.20;99.90;;;;;;5049668;28;20206;-61
2024/03/09 05:12:44;;;;;;;47.13;29.77;;;1.20;99.90;;;;;;5049918;28;20222;-62
2024/03/09 05:15:12;;;;;;;50.53;29.48;;;1.20;99.90;;;;;;5052039;28;20245;-60
2024/03/09 05:17:39;;;;;;;53.72;30.30;;;1.20;99.90;;;;;;5051956;28;20201;-60
2024/03/09 05:20:14;;;;;;;50.08;29.02;;;1.20;99.90;;;;;;5051417;28;20506;-59
2024/03/09 05:22:44;;;;;;;50.35;31.75;;;1.20;99.90;;;;;;5048814;28;20221;-59
2024/03/09 05:25:11;;;;;;;48.80;30.10;;;1.20;99.90;;;;;;5035783;28;20626;-60
2024/03/09 05:27:42;;;;;;;51.38;30.60;;;1.10;99.90;;;;;;5035498;28;20249;-59
2024/03/09 05:30:13;;;;;;;52.13;30.25;;;1.10;99.90;;;;;;5035436;28;20713;-59
2024/03/09 05:32:40;;;;;;;50.08;29.05;;;1.10;99.90;;;;;;5035753;28;20253;-60
2024/03/09 05:35:11;;;;;;;46.00;26.92;;;1.10;99.90;;;;;;5035749;28;20256;-60
2024/03/09 05:37:39;;;;;;;47.20;28.42;;;1.10;99.90;;;;;;5035701;28;20197;-60
2024/03/09 05:40:09;;;;;;;55.00;32.85;;;1.10;99.90;;;;;;5035723;28;20206;-61
2024/03/09 05:42:37;;;;;;;49.88;30.67;;;1.00;99.90;;;;;;5035100;28;20281;-59
2024/03/09 05:45:05;;;;;;;51.00;30.77;;;1.00;99.90;;;;;;5035234;28;20202;-58
2024/03/09 05:47:31;;;;;;;48.05;28.60;;;1.00;99.90;;;;;;5035258;28;20201;-60
2024/03/09 05:49:58;;;;;;;50.70;29.85;;;1.00;99.90;;;;;;5034928;28;20676;-60
2024/03/09 05:52:26;;;;;;;51.08;28.85;;;1.00;99.90;;;;;;5034799;28;20226;-60
2024/03/09 05:54:53;;;;;;;52.85;29.65;;;1.00;99.90;;;;;;5034993;28;20198;-59
2024/03/09 05:57:22;;;;;;;46.53;26.70;;;1.00;99.90;;;;;;5035031;28;20206;-59
2024/03/09 05:59:49;;;;;;;50.97;28.83;;;1.00;99.90;;;;;;5035079;28;20304;-59
2024/03/09 06:02:16;;;;;;;47.92;28.25;;;1.00;99.90;;;;;;5034721;28;20226;-60
2024/03/09 06:04:44;;;;;;;47.08;28.95;;;1.00;99.90;;;;;;5035855;28;20209;-61
2024/03/09 06:07:10;;;;;;;46.25;29.23;;;1.00;99.90;;;;;;5035976;28;20210;-60
2024/03/09 06:09:37;;;;;;;57.42;29.83;;;1.00;99.90;;;;;;5034359;28;20707;-60
2024/03/09 06:12:05;;;;;;;45.75;29.52;;;1.00;99.90;;;;;;5034122;28;20220;-59
2024/03/09 06:14:33;;;;;;;48.45;27.33;;;1.10;99.90;;;;;;5034662;28;20210;-60
2024/03/09 06:17:00;;;;;;;44.55;30.02;;;1.10;99.90;;;;;;5034518;28;20316;-59
2024/03/09 06:19:26;;;;;;;45.28;28.33;;;1.10;99.90;;;;;;5034777;28;20202;-60
2024/03/09 06:21:53;;;;;;;43.63;29.35;;;1.10;99.90;;;;;;5034534;28;20218;-58
2024/03/09 06:24:21;;;;;;;45.22;27.55;;;1.10;99.90;;;;;;5035347;28;20209;-59
2024/03/09 06:26:48;;;;;;;46.00;27.15;;;1.20;99.90;;;;;;5034316;28;20209;-60
2024/03/09 06:29:14;;;;;;;46.40;28.15;;;1.20;99.90;;;;;;5033998;28;20209;-60
2024/03/09 06:31:43;;;;;;;48.42;28.50;;;1.20;99.90;;;;;;5034184;28;20232;-58
2024/03/09 06:34:09;;;;;;;47.17;29.33;;;1.30;99.90;;;;;;5033626;28;20664;-61
2024/03/09 06:36:37;;;;;;;47.28;28.55;;;1.30;99.90;;;;;;5033178;28;20203;-60
2024/03/09 06:39:04;;;;;;;50.03;29.60;;;1.30;99.90;;;;;;5033541;28;20268;-60
2024/03/09 06:41:30;;;;;;;46.53;29.10;;;1.40;99.90;;;;;;5033517;28;20730;-60
2024/03/09 06:43:57;;;;;;;41.83;26.42;;;1.40;99.90;;;;;;5033881;28;20205;-59
2024/03/09 06:46:24;;;;;;;52.85;27.50;;;1.50;99.90;;;;;;5034065;28;20256;-59
2024/03/09 06:48:52;;;;;;;44.20;26.70;;;1.50;99.90;;;;;;5033755;28;20251;-59
2024/03/09 06:51:21;;;;;;;39.17;27.23;;;1.60;99.90;;;;;;5033478;28;20326;-59
2024/03/09 06:53:48;;;;;;;43.17;26.92;;;1.60;99.90;;;;;;5034343;28;20222;-59
2024/03/09 06:56:15;;;;;;;43.55;26.83;;;1.70;99.90;;;;;;5034166;28;20198;-60
2024/03/09 06:58:41;;;;;;;50.08;27.40;;;1.70;99.90;;;;;;5033424;28;20603;-60
2024/03/09 07:01:19;;;;;;;44.05;25.80;;;1.80;99.90;;;;;;5033124;28;20739;-59
2024/03/09 07:03:46;;;;;;;40.63;25.00;;;1.80;99.90;;;;;;5033836;28;20248;-59
2024/03/09 07:06:14;;;;;;;38.80;23.73;;;1.90;99.90;;;;;;5034454;28;20260;-60
2024/03/09 07:08:42;;;;;;;41.95;27.17;;;1.90;99.90;;;;;;5033657;28;20213;-60
2024/03/09 07:11:09;;;;;;;42.08;25.95;;;2.00;99.90;;;;;;5034612;28;20222;-59
2024/03/09 07:13:36;;;;;;;43.88;25.48;;;2.00;99.90;;;;;;5033665;28;20222;-59
2024/03/09 07:16:02;;;;;;;44.53;26.30;;;2.10;99.90;;;;;;5034018;28;20202;-60
2024/03/09 07:18:33;;;;;;;41.30;25.40;;;2.10;99.90;;;;;;5033625;28;20202;-61
2024/03/09 07:21:00;;;;;;;38.78;23.40;;;2.20;99.90;;;;;;5033495;28;20226;-59
2024/03/09 07:23:28;;;;;;;37.75;24.63;;;2.20;99.90;;;;;;5033893;28;20198;-59
2024/03/09 07:25:55;;;;;;;37.67;24.65;;;2.30;99.90;;;;;;5033812;28;20206;-59
2024/03/09 07:28:22;;;;;;;46.50;24.73;;;2.40;99.90;;;;;;5033163;28;20799;-61
2024/03/09 07:30:50;;;;;;;39.83;24.77;;;2.50;99.90;;;;;;5032537;28;20206;-59
2024/03/09 07:33:17;;;;;;;40.38;23.35;;;2.60;99.90;;;;;;5033023;28;20732;-60
2024/03/09 07:35:44;;;;;;;40.53;23.50;;;2.60;99.90;;;;;;5032717;28;20206;-60
2024/03/09 07:38:11;;;;;;;40.30;24.92;;;2.70;99.90;;;;;;5033301;28;20312;-59
2024/03/09 07:40:41;;;;;;;39.13;25.48;;;2.80;99.90;;;;;;5033210;28;20202;-60
2024/03/09 07:43:12;;;;;;;37.50;23.42;;;2.90;99.90;;;;;;5033335;28;20293;-58
2024/03/09 07:45:40;;;;;;;35.95;22.95;;;2.90;99.90;;;;;;5032956;28;20190;-60
2024/03/09 07:48:07;;;;;;;37.35;23.80;;;3.00;99.90;;;;;;5032902;28;20202;-61
2024/03/09 07:50:34;;;;;;;36.63;24.48;;;3.10;99.90;;;;;;5032906;28;20672;-60
2024/03/09 07:53:01;;;;;;;41.67;23.33;;;3.20;99.90;;;;;;5032447;28;20226;-60
2024/03/09 07:55:32;;;;;;;34.80;23.85;;;3.30;99.90;;;;;;5033146;28;20198;-60
2024/03/09 07:58:00;;;;;;;33.75;21.45;;;3.30;99.90;;;;;;5033036;28;20190;-60
2024/03/09 08:00:28;;;;;;;31.10;20.83;;;3.50;99.90;;;;;;5033001;28;20204;-60
2024/03/09 08:02:56;;;;;;;35.70;22.02;;;3.50;99.90;;;;;;5035104;28;20226;-61
2024/03/09 08:05:25;;;;;;;37.40;23.85;;;3.60;99.90;;;;;;5035399;28;20198;-61
2024/03/09 08:07:52;;;;;;;35.50;23.33;;;3.70;99.90;;;;;;5032713;28;20206;-60
2024/03/09 08:10:21;;;;;;;35.28;23.17;;;3.80;99.90;;;;;;5032842;28;20224;-61
2024/03/09 08:12:49;;;;;;;39.58;22.42;;;3.90;99.90;;;;;;5032574;28;20222;-60
2024/03/09 08:15:17;;;;;;;32.53;22.05;;;4.00;99.90;;;;;;5032687;28;20212;-60
2024/03/09 08:17:47;;;;;;;29.67;21.38;;;4.00;99.90;;;;;;5032327;28;20283;-60
2024/03/09 08:20:15;;;;;;;33.13;22.83;;;4.10;99.90;;;;;;5033253;28;20202;-60
2024/03/09 08:22:42;;;;;;;29.33;20.88;;;4.20;99.90;;;;;;5032165;28;20228;-59
2024/03/09 08:25:11;;;;;;;33.67;21.23;;;4.20;99.90;;;;;;5032227;28;20528;-60
2024/03/09 08:27:39;;;;;;;31.90;22.80;;;4.30;99.90;;;;;;5032914;28;20202;-60
2024/03/09 08:30:06;;;;;;;32.50;21.55;;;4.40;99.90;;;;;;5033202;28;20198;-61
2024/03/09 08:32:35;;;;;;;30.92;20.13;;;4.40;99.90;;;;;;5032326;28;20226;-61
2024/03/09 08:35:05;;;;;;;32.58;21.88;;;4.50;99.90;;;;;;5032851;28;20237;-59
2024/03/09 08:37:32;;;;;;;29.38;21.17;;;4.60;99.90;;;;;;5035758;28;20233;-60
2024/03/09 08:40:00;;;;;;;33.60;21.25;;;4.70;99.90;;;;;;5036652;28;20209;-61
2024/03/09 08:42:27;;;;;;;47.42;26.50;;;4.70;99.90;;;;;;5035786;28;20258;-60
2024/03/09 08:44:54;;;;;;;33.40;22.38;;;4.80;99.90;;;;;;5035551;28;20581;-59
2024/03/09 08:47:21;;;;;;;33.13;21.00;;;4.90;99.90;;;;;;5034039;28;20202;-60
2024/03/09 08:49:49;;;;;;;31.58;20.60;;;5.00;99.90;;;;;;5034710;28;20221;-60
2024/03/09 08:52:15;;;;;;;27.27;19.85;;;5.00;99.90;;;;;;5035956;28;20218;-60
2024/03/09 08:54:44;;;;;;;32.95;20.50;;;5.10;99.90;;;;;;5033939;28;20226;-61
2024/03/09 08:57:11;;;;;;;29.42;19.75;;;5.20;99.90;;;;;;5033989;28;20298;-61
2024/03/09 08:59:42;;;;;;;26.25;18.58;;;5.30;99.90;;;;;;5035900;28;20202;-60
2024/03/09 09:02:09;;;;;;;27.08;19.63;;;5.40;99.90;;;;;;5036958;28;20261;-60
2024/03/09 09:04:35;;;;;;;25.30;16.95;;;5.40;99.90;;;;;;5038559;28;20195;-62
2024/03/09 09:07:04;;;;;;;29.65;18.42;;;5.50;99.90;;;;;;5037375;28;20207;-61
2024/03/09 09:09:31;;;;;;;26.63;18.42;;;5.50;99.90;;;;;;5036635;28;20284;-62
2024/03/09 09:11:59;;;;;;;28.05;19.55;;;5.60;99.90;;;;;;5036365;28;20222;-61
2024/03/09 09:14:26;;;;;;;25.02;17.95;;;5.70;99.90;;;;;;5036677;28;20222;-62
2024/03/09 09:16:54;;;;;;;26.30;18.42;;;5.80;99.90;;;;;;5036261;28;20206;-62
2024/03/09 09:19:21;;;;;;;29.40;18.92;;;5.90;99.90;;;;;;5035876;28;20677;-60
2024/03/09 09:21:48;;;;;;;30.20;20.15;;;6.00;99.90;;;;;;5036233;28;20280;-62
2024/03/09 09:24:17;;;;;;;25.77;17.48;;;6.00;99.90;;;;;;5037545;28;20214;-62
2024/03/09 09:26:44;;;;;;;28.77;18.20;;;6.20;99.90;;;;;;5039072;28;20264;-62
2024/03/09 09:29:10;;;;;;;26.52;19.25;;;6.30;99.90;;;;;;5037757;28;20198;-61
2024/03/09 09:31:37;;;;;;;29.38;19.48;;;6.40;99.90;;;;;;5036911;28;20222;-62
2024/03/09 09:34:04;;;;;;;27.92;17.50;;;6.40;99.90;;;;;;5036107;28;20222;-61
2024/03/09 09:36:31;;;;;;;23.23;17.33;;;6.50;99.90;;;;;;5036661;28;20580;-61
2024/03/09 09:38:58;;;;;;;26.42;18.85;;;6.60;99.90;;;;;;5036041;28;20629;-61
2024/03/09 09:41:28;;;;;;;25.60;18.38;;;6.60;99.90;;;;;;5036039;28;20265;-61
2024/03/09 09:43:58;;;;;;;24.00;17.63;;;6.60;99.90;;;;;;5035640;28;20198;-61
2024/03/09 09:46:26;;;;;;;20.67;15.93;;;6.80;99.90;;;;;;5036109;28;20271;-62
2024/03/09 09:48:53;;;;;;;23.67;16.95;;;6.80;99.90;;;;;;5035193;28;20236;-61
2024/03/09 09:51:22;;;;;;;26.20;18.40;;;6.80;99.90;;;;;;5035783;28;20239;-63
2024/03/09 09:53:52;;;;;;;21.65;15.88;;;6.90;99.90;;;;;;5035295;28;20222;-60
2024/03/09 09:56:20;;;;;;;23.65;17.45;;;6.90;99.90;;;;;;5035407;28;20202;-61
2024/03/09 09:58:48;;;;;;;21.67;15.65;;;7.00;99.90;;;;;;5035512;28;20248;-61
2024/03/09 10:01:20;;;;;;;24.80;16.52;;;7.00;99.90;;;;;;5035179;28;20256;-60
2024/03/09 10:03:47;;;;;;;24.83;17.90;;;7.10;99.90;;;;;;5035152;28;20248;-61
2024/03/09 10:06:21;;;;;;;22.85;17.08;;;7.10;99.90;;;;;;5037129;28;20206;-62
2024/03/09 10:08:48;;;;;;;19.65;15.80;;;7.20;99.90;;;;;;5037705;28;20230;-60
2024/03/09 10:11:15;;;;;;;22.92;17.25;;;7.20;99.90;;;;;;5037176;28;20226;-62
2024/03/09 10:13:43;;;;;;;22.42;16.83;;;7.30;99.90;;;;;;5035671;28;20219;-61
2024/03/09 10:16:13;;;;;;;23.70;16.88;;;7.40;99.90;;;;;;5036497;28;20297;-61
2024/03/09 10:18:43;;;;;;;20.52;16.38;;;7.40;99.90;;;;;;5036339;28;20206;-60
2024/03/09 10:21:10;;;;;;;22.98;17.20;;;7.50;99.30;;;;;;5035788;28;20218;-62
2024/03/09 10:23:37;;;;;;;24.38;16.85;;;7.50;99.20;;;;;;5035487;28;20198;-61
2024/03/09 10:26:06;;;;;;;21.50;15.73;;;7.50;99.00;;;;;;5035217;28;20203;-62
2024/03/09 10:28:36;;;;;;;19.48;15.57;;;7.60;98.80;;;;;;5035134;28;20206;-60
2024/03/09 10:31:04;;;;;;;23.08;16.75;;;7.70;98.10;;;;;;5035431;28;20225;-61
2024/03/09 10:33:34;;;;;;;21.08;16.35;;;7.80;97.70;;;;;;5035162;28;20256;-61
2024/03/09 10:36:01;;;;;;;20.88;15.10;;;7.80;97.20;;;;;;5034957;28;20229;-62
2024/03/09 10:38:30;;;;;;;20.73;15.65;;;7.90;97.20;;;;;;5034851;28;20202;-60
2024/03/09 10:41:00;;;;;;;22.05;15.80;;;8.10;97.00;;;;;;5034539;28;20206;-61
2024/03/09 10:43:28;;;;;;;19.15;14.73;;;8.20;96.60;;;;;;5034966;28;20262;-61
2024/03/09 10:45:57;;;;;;;19.52;14.90;;;8.40;96.00;;;;;;5034502;28;20573;-62
2024/03/09 10:48:29;;;;;;;21.63;15.25;;;8.50;94.90;;;;;;5035335;28;20186;-61
2024/03/09 10:51:19;;;;;;;20.02;14.25;;;8.50;94.00;;;;;;5034913;28;20199;-61
2024/03/09 10:53:59;;;;;;;22.00;16.38;;;8.60;93.40;;;;;;5034866;28;20207;-62
2024/03/09 10:56:26;;;;;;;18.67;14.50;;;8.60;92.70;;;;;;5034119;28;20182;-62
2024/03/09 10:58:53;;;;;;;19.83;13.18;;;8.70;92.40;;;;;;5034072;28;20570;-61
2024/03/09 11:01:22;;;;;;;19.00;14.20;;;8.70;92.10;;;;;;5033760;28;20253;-61
2024/03/09 11:03:50;;;;;;;21.52;14.70;;;8.80;91.60;;;;;;5034346;28;20186;-61
2024/03/09 11:06:19;;;;;;;21.63;15.57;;;8.90;91.00;;;;;;5034119;28;20268;-60
2024/03/09 11:08:48;;;;;;;18.27;15.05;;;8.90;90.50;;;;;;5034471;28;20202;-61
2024/03/09 11:11:18;;;;;;;20.30;15.82;;;8.90;89.20;;;;;;5033940;28;20631;-62
2024/03/09 11:13:47;;;;;;;15.33;13.00;;;8.90;88.20;;;;;;5035267;28;20269;-61
2024/03/09 11:16:14;;;;;;;18.00;13.50;;;9.00;88.10;;;;;;5033445;28;20805;-60
2024/03/09 11:18:44;;;;;;;20.48;14.73;;;9.00;87.90;;;;;;5033922;28;20444;-60
2024/03/09 11:21:26;;;;;;;20.42;14.80;;;9.20;88.00;;;;;;5033762;28;20294;-60
2024/03/09 11:23:53;;;;;;;18.93;14.13;;;9.30;86.50;;;;;;5035224;28;20193;-61
2024/03/09 11:26:23;;;;;;;18.00;13.97;;;9.30;85.30;;;;;;5036277;28;20453;-60
2024/03/09 11:28:51;;;;;;;18.70;14.00;;;9.20;83.40;;;;;;5034827;28;20439;-60
2024/03/09 11:31:26;;;;;;;20.03;15.23;;;9.10;83.00;;;;;;5034003;28;20230;-60
2024/03/09 11:33:57;;;;;;;18.98;14.45;;;9.00;83.00;;;;;;5034375;28;20464;-61
2024/03/09 11:36:46;;;;;;;20.52;15.43;;;8.90;83.60;;;;;;5033741;28;20197;-61
2024/03/09 11:39:14;;;;;;;21.25;16.33;;;8.90;82.80;;;;;;5033685;28;20190;-61
2024/03/09 11:41:46;;;;;;;15.95;13.55;;;8.90;83.00;;;;;;5033478;28;20226;-60
2024/03/09 11:44:16;;;;;;;16.92;13.00;;;9.00;82.70;;;;;;5033545;28;20248;-62
2024/03/09 11:46:42;;;;;;;19.23;14.35;;;9.00;81.60;;;;;;5033332;28;20202;-61
2024/03/09 11:49:09;;;;;;;19.25;14.60;;;9.00;81.10;;;;;;5034119;28;20216;-61
2024/03/09 11:51:39;;;;;;;18.27;15.47;;;9.00;80.20;;;;;;5034230;28;20248;-61
2024/03/09 11:54:09;;;;;;;16.50;14.02;;;9.00;80.20;;;;;;5034326;28;20487;-61
2024/03/09 11:56:36;;;;;;;23.10;16.00;;;9.00;80.10;;;;;;5033430;28;20213;-60
2024/03/09 11:59:06;;;;;;;16.55;13.80;;;9.10;80.00;;;;;;5033013;28;20217;-60
2024/03/09 12:01:34;;;;;;;17.00;13.53;;;9.10;79.80;;;;;;5032759;28;20284;-60
2024/03/09 12:04:02;;;;;;;19.03;15.27;;;9.10;79.50;;;;;;5032859;28;20473;-61
2024/03/09 12:06:29;;;;;;;19.60;14.70;;;9.10;79.00;;;;;;5033934;28;20832;-62
2024/03/09 12:08:57;;;;;;;19.33;14.90;;;9.10;79.00;;;;;;5036558;28;20819;-61
2024/03/09 12:11:25;;;;;;;20.45;14.95;;;9.20;79.00;;;;;;5034927;28;20495;-60
2024/03/09 12:13:52;;;;;;;19.80;15.33;;;9.30;78.80;;;;;;5033057;28;20226;-60
2024/03/09 12:16:20;;;;;;;19.77;16.17;;;9.40;78.20;;;;;;5032598;28;20964;-61
2024/03/09 12:18:48;;;;;;;20.75;16.77;;;9.40;77.90;;;;;;5032620;28;20445;-61
2024/03/09 12:21:17;;;;;;;21.00;14.87;;;9.40;77.90;;;;;;5032795;28;20218;-60
2024/03/09 12:23:48;;;;;;;20.98;15.23;;;9.50;77.60;;;;;;5033069;28;20811;-61
2024/03/09 12:26:17;;;;;;;17.37;12.83;;;9.50;76.80;;;;;;5033722;28;20187;-61
2024/03/09 12:28:45;;;;;;;19.27;14.20;;;9.60;76.30;;;;;;5032557;28;20446;-60
2024/03/09 12:31:13;;;;;;;14.40;12.87;;;9.60;76.00;;;;;;5033162;28;20500;-60
2024/03/09 12:33:42;;;;;;;17.10;13.73;;;9.70;75.60;;;;;;5034529;28;20455;-61
2024/03/09 12:36:09;;;;;;;18.53;14.60;;;9.70;75.20;;;;;;5036697;28;20514;-60
2024/03/09 12:38:37;;;;;;;16.20;14.30;;;9.80;74.90;;;;;;5036542;28;20444;-61
2024/03/09 12:41:05;;;;;;;20.00;14.07;;;9.90;74.40;;;;;;5036278;28;20460;-62
2024/03/09 12:43:35;;;;;;;17.10;14.20;;;9.90;73.40;;;;;;5035896;28;20528;-60